< < Back
Terminal Aerodrome Forecast


Current Version              Previous Versions:   1  2  3  4  5  6  7  8  9  

Terminal Aerodrome Forecast

809
FTUS42 KILM 250522
TAFFLO
TAF
KFLO 250522Z 2506/2606 22005KT P6SM SKC
     FM250900 22002KT 5SM BR SKC
     FM251400 20008KT P6SM FEW040=

Latest METAR

953
SAUS70 KWBC 260200 RRC
MTRFLO
METAR KFLO 260153Z AUTO 17006KT 10SM CLR 28/22 A3004 RMK AO2 SLP168
T02830222


USA.gov is the U.S. government's official web portal to all federal, state and local government web resources and services.